sensor_id;sensor_type;location;lat;lon;timestamp;P1;durP1;ratioP1;P2;durP2;ratioP2
57107;SDS011;42987;52.916;6.542;2022-11-18T00:00:47;49.97;;;44.10;;
57107;SDS011;42987;52.916;6.542;2022-11-18T00:03:14;49.55;;;42.45;;
57107;SDS011;42987;52.916;6.542;2022-11-18T00:05:40;49.55;;;42.53;;
57107;SDS011;42987;52.916;6.542;2022-11-18T00:08:06;52.05;;;44.60;;
57107;SDS011;42987;52.916;6.542;2022-11-18T00:10:32;55.47;;;46.13;;
57107;SDS011;42987;52.916;6.542;2022-11-18T00:13:01;56.53;;;45.97;;
57107;SDS011;42987;52.916;6.542;2022-11-18T00:15:45;58.35;;;45.85;;
57107;SDS011;42987;52.916;6.542;2022-11-18T00:18:14;55.20;;;45.03;;
57107;SDS011;42987;52.916;6.542;2022-11-18T00:20:40;58.30;;;45.40;;
57107;SDS011;42987;52.916;6.542;2022-11-18T00:23:06;59.05;;;46.78;;
57107;SDS011;42987;52.916;6.542;2022-11-18T00:25:32;58.95;;;46.67;;
57107;SDS011;42987;52.916;6.542;2022-11-18T00:28:01;62.03;;;47.30;;
57107;SDS011;42987;52.916;6.542;2022-11-18T00:30:26;60.25;;;47.50;;
57107;SDS011;42987;52.916;6.542;2022-11-18T00:32:52;60.65;;;46.90;;
57107;SDS011;42987;52.916;6.542;2022-11-18T00:35:21;66.22;;;48.03;;
57107;SDS011;42987;52.916;6.542;2022-11-18T00:37:50;66.05;;;48.47;;
57107;SDS011;42987;52.916;6.542;2022-11-18T00:40:16;67.07;;;48.08;;
57107;SDS011;42987;52.916;6.542;2022-11-18T00:42:42;70.25;;;47.90;;
57107;SDS011;42987;52.916;6.542;2022-11-18T00:45:21;72.55;;;48.90;;
57107;SDS011;42987;52.916;6.542;2022-11-18T00:47:47;72.57;;;49.83;;
57107;SDS011;42987;52.916;6.542;2022-11-18T00:50:13;77.55;;;50.70;;
57107;SDS011;42987;52.916;6.542;2022-11-18T00:52:40;78.18;;;51.65;;
57107;SDS011;42987;52.916;6.542;2022-11-18T00:55:06;78.20;;;51.35;;
57107;SDS011;42987;52.916;6.542;2022-11-18T00:57:32;76.65;;;50.05;;
57107;SDS011;42987;52.916;6.542;2022-11-18T00:59:57;74.00;;;49.58;;
57107;SDS011;42987;52.916;6.542;2022-11-18T01:02:26;81.57;;;52.33;;
57107;SDS011;42987;52.916;6.542;2022-11-18T01:04:52;80.70;;;51.78;;
57107;SDS011;42987;52.916;6.542;2022-11-18T01:07:17;78.18;;;50.55;;
57107;SDS011;42987;52.916;6.542;2022-11-18T01:09:43;81.65;;;51.25;;
57107;SDS011;42987;52.916;6.542;2022-11-18T01:12:12;85.07;;;51.80;;
57107;SDS011;42987;52.916;6.542;2022-11-18T01:14:57;88.63;;;52.85;;
57107;SDS011;42987;52.916;6.542;2022-11-18T01:17:24;83.53;;;52.72;;
57107;SDS011;42987;52.916;6.542;2022-11-18T01:19:49;87.15;;;52.47;;
57107;SDS011;42987;52.916;6.542;2022-11-18T01:22:15;86.28;;;52.80;;
57107;SDS011;42987;52.916;6.542;2022-11-18T01:24:41;78.50;;;49.67;;
57107;SDS011;42987;52.916;6.542;2022-11-18T01:27:07;88.20;;;53.85;;
57107;SDS011;42987;52.916;6.542;2022-11-18T01:29:33;89.35;;;53.40;;
57107;SDS011;42987;52.916;6.542;2022-11-18T01:31:58;87.55;;;52.28;;
57107;SDS011;42987;52.916;6.542;2022-11-18T01:34:26;94.93;;;54.55;;
57107;SDS011;42987;52.916;6.542;2022-11-18T01:36:53;86.68;;;53.17;;
57107;SDS011;42987;52.916;6.542;2022-11-18T01:39:20;87.00;;;53.50;;
57107;SDS011;42987;52.916;6.542;2022-11-18T01:41:52;92.43;;;54.55;;
57107;SDS011;42987;52.916;6.542;2022-11-18T01:47:22;94.53;;;56.30;;
57107;SDS011;42987;52.916;6.542;2022-11-18T01:49:52;97.78;;;54.78;;
57107;SDS011;42987;52.916;6.542;2022-11-18T01:52:18;97.05;;;53.75;;
57107;SDS011;42987;52.916;6.542;2022-11-18T01:54:47;93.38;;;53.63;;
57107;SDS011;42987;52.916;6.542;2022-11-18T01:57:19;96.75;;;55.42;;
57107;SDS011;42987;52.916;6.542;2022-11-18T01:59:48;90.57;;;53.33;;
57107;SDS011;42987;52.916;6.542;2022-11-18T02:02:18;86.05;;;53.22;;
57107;SDS011;42987;52.916;6.542;2022-11-18T02:04:47;91.07;;;53.30;;
57107;SDS011;42987;52.916;6.542;2022-11-18T02:07:13;91.13;;;54.47;;
57107;SDS011;42987;52.916;6.542;2022-11-18T02:09:40;85.25;;;52.53;;
57107;SDS011;42987;52.916;6.542;2022-11-18T02:12:07;87.55;;;52.65;;
57107;SDS011;42987;52.916;6.542;2022-11-18T02:14:35;81.95;;;51.38;;
57107;SDS011;42987;52.916;6.542;2022-11-18T02:17:07;83.87;;;51.83;;
57107;SDS011;42987;52.916;6.542;2022-11-18T02:22:39;77.75;;;51.17;;
57107;SDS011;42987;52.916;6.542;2022-11-18T02:30:43;80.50;;;51.55;;
57107;SDS011;42987;52.916;6.542;2022-11-18T02:39:07;75.82;;;50.58;;
57107;SDS011;42987;52.916;6.542;2022-11-18T02:41:40;83.95;;;54.30;;
57107;SDS011;42987;52.916;6.542;2022-11-18T02:44:10;78.28;;;52.85;;
57107;SDS011;42987;52.916;6.542;2022-11-18T02:46:42;79.50;;;51.10;;
57107;SDS011;42987;52.916;6.542;2022-11-18T02:49:23;82.65;;;51.60;;
57107;SDS011;42987;52.916;6.542;2022-11-18T02:51:55;79.00;;;52.83;;
57107;SDS011;42987;52.916;6.542;2022-11-18T02:54:22;83.25;;;52.88;;
57107;SDS011;42987;52.916;6.542;2022-11-18T02:56:50;82.20;;;52.45;;
57107;SDS011;42987;52.916;6.542;2022-11-18T02:59:18;83.68;;;52.20;;
57107;SDS011;42987;52.916;6.542;2022-11-18T03:01:44;75.97;;;51.72;;
57107;SDS011;42987;52.916;6.542;2022-11-18T03:04:10;81.78;;;52.30;;
57107;SDS011;42987;52.916;6.542;2022-11-18T03:06:47;74.47;;;50.25;;
57107;SDS011;42987;52.916;6.542;2022-11-18T03:09:28;73.00;;;50.10;;
57107;SDS011;42987;52.916;6.542;2022-11-18T03:27:35;71.03;;;51.33;;
57107;SDS011;42987;52.916;6.542;2022-11-18T03:30:18;65.13;;;48.60;;
57107;SDS011;42987;52.916;6.542;2022-11-18T03:32:55;70.35;;;48.60;;
57107;SDS011;42987;52.916;6.542;2022-11-18T03:35:30;69.88;;;49.22;;
57107;SDS011;42987;52.916;6.542;2022-11-18T03:38:07;70.47;;;49.42;;
57107;SDS011;42987;52.916;6.542;2022-11-18T03:40:41;68.35;;;47.90;;
57107;SDS011;42987;52.916;6.542;2022-11-18T03:43:16;69.68;;;48.58;;
57107;SDS011;42987;52.916;6.542;2022-11-18T03:45:53;63.80;;;47.70;;
57107;SDS011;42987;52.916;6.542;2022-11-18T03:48:26;69.30;;;47.70;;
57107;SDS011;42987;52.916;6.542;2022-11-18T03:51:03;67.78;;;48.35;;
57107;SDS011;42987;52.916;6.542;2022-11-18T03:53:33;66.45;;;47.15;;
57107;SDS011;42987;52.916;6.542;2022-11-18T03:56:17;69.25;;;49.08;;
57107;SDS011;42987;52.916;6.542;2022-11-18T03:58:52;66.00;;;47.45;;
57107;SDS011;42987;52.916;6.542;2022-11-18T04:01:45;61.47;;;45.63;;
57107;SDS011;42987;52.916;6.542;2022-11-18T04:04:15;66.82;;;47.17;;
57107;SDS011;42987;52.916;6.542;2022-11-18T04:09:44;63.60;;;46.53;;
57107;SDS011;42987;52.916;6.542;2022-11-18T04:12:16;64.45;;;46.30;;
57107;SDS011;42987;52.916;6.542;2022-11-18T04:14:47;60.17;;;46.35;;
57107;SDS011;42987;52.916;6.542;2022-11-18T04:17:17;59.30;;;45.55;;
57107;SDS011;42987;52.916;6.542;2022-11-18T04:19:45;64.22;;;47.00;;
57107;SDS011;42987;52.916;6.542;2022-11-18T04:22:14;61.83;;;46.25;;
57107;SDS011;42987;52.916;6.542;2022-11-18T04:24:41;63.15;;;46.45;;
57107;SDS011;42987;52.916;6.542;2022-11-18T04:27:07;61.38;;;45.53;;
57107;SDS011;42987;52.916;6.542;2022-11-18T04:29:33;66.03;;;47.20;;
57107;SDS011;42987;52.916;6.542;2022-11-18T04:31:59;60.08;;;45.92;;
57107;SDS011;42987;52.916;6.542;2022-11-18T04:34:26;61.55;;;45.88;;
57107;SDS011;42987;52.916;6.542;2022-11-18T04:36:52;57.72;;;43.60;;
57107;SDS011;42987;52.916;6.542;2022-11-18T04:39:18;62.92;;;45.80;;
57107;SDS011;42987;52.916;6.542;2022-11-18T04:41:44;62.08;;;45.25;;
57107;SDS011;42987;52.916;6.542;2022-11-18T04:44:26;61.47;;;44.67;;
57107;SDS011;42987;52.916;6.542;2022-11-18T04:46:54;66.30;;;45.75;;
57107;SDS011;42987;52.916;6.542;2022-11-18T04:49:21;59.65;;;45.45;;
57107;SDS011;42987;52.916;6.542;2022-11-18T04:51:47;67.40;;;44.92;;
57107;SDS011;42987;52.916;6.542;2022-11-18T04:54:14;60.28;;;43.85;;
57107;SDS011;42987;52.916;6.542;2022-11-18T04:56:47;61.30;;;44.72;;
57107;SDS011;42987;52.916;6.542;2022-11-18T04:59:17;63.10;;;44.40;;
57107;SDS011;42987;52.916;6.542;2022-11-18T05:01:48;62.03;;;43.85;;
57107;SDS011;42987;52.916;6.542;2022-11-18T05:04:21;64.13;;;43.00;;
57107;SDS011;42987;52.916;6.542;2022-11-18T05:06:50;61.70;;;42.85;;
57107;SDS011;42987;52.916;6.542;2022-11-18T05:09:16;67.93;;;42.75;;
57107;SDS011;42987;52.916;6.542;2022-11-18T05:11:42;66.80;;;43.45;;
57107;SDS011;42987;52.916;6.542;2022-11-18T05:14:27;63.08;;;43.08;;
57107;SDS011;42987;52.916;6.542;2022-11-18T05:16:57;63.07;;;43.40;;
57107;SDS011;42987;52.916;6.542;2022-11-18T05:19:28;65.82;;;44.30;;
57107;SDS011;42987;52.916;6.542;2022-11-18T05:21:55;63.60;;;41.75;;
57107;SDS011;42987;52.916;6.542;2022-11-18T05:24:24;62.42;;;42.88;;
57107;SDS011;42987;52.916;6.542;2022-11-18T05:26:51;63.17;;;42.80;;
57107;SDS011;42987;52.916;6.542;2022-11-18T05:29:17;64.82;;;42.75;;
57107;SDS011;42987;52.916;6.542;2022-11-18T05:31:45;66.63;;;42.95;;
57107;SDS011;42987;52.916;6.542;2022-11-18T05:34:17;70.47;;;45.00;;
57107;SDS011;42987;52.916;6.542;2022-11-18T05:36:43;63.57;;;42.10;;
57107;SDS011;42987;52.916;6.542;2022-11-18T05:39:09;69.28;;;43.05;;
57107;SDS011;42987;52.916;6.542;2022-11-18T05:41:36;66.68;;;41.65;;
57107;SDS011;42987;52.916;6.542;2022-11-18T05:44:20;66.57;;;43.30;;
57107;SDS011;42987;52.916;6.542;2022-11-18T05:46:45;68.32;;;43.00;;
57107;SDS011;42987;52.916;6.542;2022-11-18T05:49:11;66.60;;;42.88;;
57107;SDS011;42987;52.916;6.542;2022-11-18T05:51:37;67.00;;;43.17;;
57107;SDS011;42987;52.916;6.542;2022-11-18T05:54:04;65.88;;;43.15;;
57107;SDS011;42987;52.916;6.542;2022-11-18T05:56:37;69.63;;;43.97;;
57107;SDS011;42987;52.916;6.542;2022-11-18T05:59:04;62.70;;;42.00;;
57107;SDS011;42987;52.916;6.542;2022-11-18T06:04:19;66.70;;;42.55;;
57107;SDS011;42987;52.916;6.542;2022-11-18T06:06:49;64.78;;;41.50;;
57107;SDS011;42987;52.916;6.542;2022-11-18T06:09:20;66.50;;;42.50;;
57107;SDS011;42987;52.916;6.542;2022-11-18T06:11:50;71.72;;;42.97;;
57107;SDS011;42987;52.916;6.542;2022-11-18T06:16:52;64.80;;;43.30;;
57107;SDS011;42987;52.916;6.542;2022-11-18T06:19:22;69.68;;;43.90;;
57107;SDS011;42987;52.916;6.542;2022-11-18T06:21:49;71.70;;;44.33;;
57107;SDS011;42987;52.916;6.542;2022-11-18T06:24:17;66.95;;;43.38;;
57107;SDS011;42987;52.916;6.542;2022-11-18T06:26:43;64.20;;;42.40;;
57107;SDS011;42987;52.916;6.542;2022-11-18T06:29:11;68.00;;;42.97;;
57107;SDS011;42987;52.916;6.542;2022-11-18T06:31:43;69.20;;;43.38;;
57107;SDS011;42987;52.916;6.542;2022-11-18T06:34:08;66.32;;;42.63;;
57107;SDS011;42987;52.916;6.542;2022-11-18T06:36:34;68.43;;;42.67;;
57107;SDS011;42987;52.916;6.542;2022-11-18T06:39:04;69.35;;;43.42;;
57107;SDS011;42987;52.916;6.542;2022-11-18T06:41:30;67.75;;;44.00;;
57107;SDS011;42987;52.916;6.542;2022-11-18T06:44:00;63.85;;;41.65;;
57107;SDS011;42987;52.916;6.542;2022-11-18T06:46:25;68.40;;;42.00;;
57107;SDS011;42987;52.916;6.542;2022-11-18T06:49:10;67.65;;;40.72;;
57107;SDS011;42987;52.916;6.542;2022-11-18T06:51:37;62.70;;;39.42;;
57107;SDS011;42987;52.916;6.542;2022-11-18T06:54:04;64.03;;;40.03;;
57107;SDS011;42987;52.916;6.542;2022-11-18T06:56:30;70.20;;;42.92;;
57107;SDS011;42987;52.916;6.542;2022-11-18T06:58:57;69.75;;;42.25;;
57107;SDS011;42987;52.916;6.542;2022-11-18T07:01:27;72.40;;;42.83;;
57107;SDS011;42987;52.916;6.542;2022-11-18T07:03:58;68.13;;;43.00;;
57107;SDS011;42987;52.916;6.542;2022-11-18T07:06:25;69.03;;;43.75;;
57107;SDS011;42987;52.916;6.542;2022-11-18T07:08:53;64.20;;;41.92;;
57107;SDS011;42987;52.916;6.542;2022-11-18T07:11:20;55.92;;;38.50;;
57107;SDS011;42987;52.916;6.542;2022-11-18T07:13:47;50.05;;;36.00;;
57107;SDS011;42987;52.916;6.542;2022-11-18T07:16:15;53.42;;;36.33;;
57107;SDS011;42987;52.916;6.542;2022-11-18T07:18:45;53.88;;;36.25;;
57107;SDS011;42987;52.916;6.542;2022-11-18T07:21:13;49.45;;;34.85;;
57107;SDS011;42987;52.916;6.542;2022-11-18T07:23:44;51.30;;;33.92;;
57107;SDS011;42987;52.916;6.542;2022-11-18T07:26:11;44.17;;;32.50;;
57107;SDS011;42987;52.916;6.542;2022-11-18T07:28:38;41.92;;;31.58;;
57107;SDS011;42987;52.916;6.542;2022-11-18T07:31:11;47.95;;;32.88;;
57107;SDS011;42987;52.916;6.542;2022-11-18T07:33:38;48.42;;;33.65;;
57107;SDS011;42987;52.916;6.542;2022-11-18T07:36:10;49.45;;;33.90;;
57107;SDS011;42987;52.916;6.542;2022-11-18T07:38:37;50.65;;;34.65;;
57107;SDS011;42987;52.916;6.542;2022-11-18T07:41:08;57.15;;;35.95;;
57107;SDS011;42987;52.916;6.542;2022-11-18T07:43:35;54.35;;;35.00;;
57107;SDS011;42987;52.916;6.542;2022-11-18T07:48:49;58.75;;;36.42;;
57107;SDS011;42987;52.916;6.542;2022-11-18T07:51:17;62.75;;;36.92;;
57107;SDS011;42987;52.916;6.542;2022-11-18T07:53:44;56.17;;;37.17;;
57107;SDS011;42987;52.916;6.542;2022-11-18T07:56:10;51.05;;;35.25;;
57107;SDS011;42987;52.916;6.542;2022-11-18T07:58:37;56.55;;;36.13;;
57107;SDS011;42987;52.916;6.542;2022-11-18T08:01:10;53.70;;;34.72;;
57107;SDS011;42987;52.916;6.542;2022-11-18T08:03:36;54.05;;;34.97;;
57107;SDS011;42987;52.916;6.542;2022-11-18T08:06:03;54.33;;;34.90;;
57107;SDS011;42987;52.916;6.542;2022-11-18T08:08:30;41.97;;;30.90;;
57107;SDS011;42987;52.916;6.542;2022-11-18T08:10:57;48.08;;;31.80;;
57107;SDS011;42987;52.916;6.542;2022-11-18T08:13:24;45.00;;;31.13;;
57107;SDS011;42987;52.916;6.542;2022-11-18T08:15:51;43.88;;;31.00;;
57107;SDS011;42987;52.916;6.542;2022-11-18T08:18:17;40.78;;;30.10;;
57107;SDS011;42987;52.916;6.542;2022-11-18T08:20:44;40.15;;;29.23;;
57107;SDS011;42987;52.916;6.542;2022-11-18T08:23:10;43.97;;;29.90;;
57107;SDS011;42987;52.916;6.542;2022-11-18T08:25:36;43.85;;;30.92;;
57107;SDS011;42987;52.916;6.542;2022-11-18T08:28:02;47.72;;;32.38;;
57107;SDS011;42987;52.916;6.542;2022-11-18T08:30:28;46.42;;;30.73;;
57107;SDS011;42987;52.916;6.542;2022-11-18T08:32:54;46.30;;;30.80;;
57107;SDS011;42987;52.916;6.542;2022-11-18T08:35:20;45.60;;;31.73;;
57107;SDS011;42987;52.916;6.542;2022-11-18T08:37:46;43.72;;;31.05;;
57107;SDS011;42987;52.916;6.542;2022-11-18T08:40:12;40.97;;;29.75;;
57107;SDS011;42987;52.916;6.542;2022-11-18T08:42:41;43.30;;;31.08;;
57107;SDS011;42987;52.916;6.542;2022-11-18T08:45:07;41.03;;;29.23;;
57107;SDS011;42987;52.916;6.542;2022-11-18T08:47:33;42.53;;;30.45;;
57107;SDS011;42987;52.916;6.542;2022-11-18T08:50:00;45.15;;;30.20;;
57107;SDS011;42987;52.916;6.542;2022-11-18T08:52:26;41.72;;;28.48;;
57107;SDS011;42987;52.916;6.542;2022-11-18T08:54:55;41.28;;;28.85;;
57107;SDS011;42987;52.916;6.542;2022-11-18T08:57:21;44.63;;;29.75;;
57107;SDS011;42987;52.916;6.542;2022-11-18T08:59:47;39.35;;;27.90;;
57107;SDS011;42987;52.916;6.542;2022-11-18T09:02:14;38.70;;;27.60;;
57107;SDS011;42987;52.916;6.542;2022-11-18T09:04:41;40.38;;;28.90;;
57107;SDS011;42987;52.916;6.542;2022-11-18T09:07:07;41.67;;;29.08;;
57107;SDS011;42987;52.916;6.542;2022-11-18T09:09:33;44.70;;;29.92;;
57107;SDS011;42987;52.916;6.542;2022-11-18T09:12:10;39.40;;;28.00;;
57107;SDS011;42987;52.916;6.542;2022-11-18T09:14:42;44.03;;;29.40;;
57107;SDS011;42987;52.916;6.542;2022-11-18T09:17:09;46.78;;;30.33;;
57107;SDS011;42987;52.916;6.542;2022-11-18T09:19:35;40.10;;;28.77;;
57107;SDS011;42987;52.916;6.542;2022-11-18T09:22:02;43.15;;;30.80;;
57107;SDS011;42987;52.916;6.542;2022-11-18T09:24:31;47.47;;;31.38;;
57107;SDS011;42987;52.916;6.542;2022-11-18T09:26:58;48.75;;;32.20;;
57107;SDS011;42987;52.916;6.542;2022-11-18T09:29:27;48.47;;;31.55;;
57107;SDS011;42987;52.916;6.542;2022-11-18T09:31:56;44.33;;;31.80;;
57107;SDS011;42987;52.916;6.542;2022-11-18T09:34:26;47.97;;;32.80;;
57107;SDS011;42987;52.916;6.542;2022-11-18T09:36:52;46.13;;;32.38;;
57107;SDS011;42987;52.916;6.542;2022-11-18T09:39:24;44.83;;;31.85;;
57107;SDS011;42987;52.916;6.542;2022-11-18T09:49:32;38.40;;;28.42;;
57107;SDS011;42987;52.916;6.542;2022-11-18T09:54:57;40.60;;;28.45;;
57107;SDS011;42987;52.916;6.542;2022-11-18T09:57:39;42.75;;;30.95;;
57107;SDS011;42987;52.916;6.542;2022-11-18T10:05:26;34.05;;;26.25;;
57107;SDS011;42987;52.916;6.542;2022-11-18T10:07:57;34.88;;;27.13;;
57107;SDS011;42987;52.916;6.542;2022-11-18T10:11:17;35.40;;;27.83;;
57107;SDS011;42987;52.916;6.542;2022-11-18T10:19:10;28.77;;;23.98;;
57107;SDS011;42987;52.916;6.542;2022-11-18T10:24:38;28.75;;;23.50;;
57107;SDS011;42987;52.916;6.542;2022-11-18T10:27:11;30.23;;;24.85;;
57107;SDS011;42987;52.916;6.542;2022-11-18T10:29:39;35.38;;;26.05;;
57107;SDS011;42987;52.916;6.542;2022-11-18T10:32:12;32.47;;;25.08;;
57107;SDS011;42987;52.916;6.542;2022-11-18T10:34:50;36.90;;;26.85;;
57107;SDS011;42987;52.916;6.542;2022-11-18T10:39:50;38.28;;;27.13;;
57107;SDS011;42987;52.916;6.542;2022-11-18T10:42:21;39.45;;;28.33;;
57107;SDS011;42987;52.916;6.542;2022-11-18T10:44:49;38.40;;;28.45;;
57107;SDS011;42987;52.916;6.542;2022-11-18T10:47:22;40.55;;;28.20;;
57107;SDS011;42987;52.916;6.542;2022-11-18T10:50:00;36.80;;;26.27;;
57107;SDS011;42987;52.916;6.542;2022-11-18T10:52:50;37.75;;;26.58;;
57107;SDS011;42987;52.916;6.542;2022-11-18T10:55:25;39.30;;;26.67;;
57107;SDS011;42987;52.916;6.542;2022-11-18T10:57:56;42.30;;;29.80;;
57107;SDS011;42987;52.916;6.542;2022-11-18T11:00:36;40.25;;;29.05;;
57107;SDS011;42987;52.916;6.542;2022-11-18T11:03:18;45.85;;;29.95;;
57107;SDS011;42987;52.916;6.542;2022-11-18T11:05:45;37.28;;;28.08;;
57107;SDS011;42987;52.916;6.542;2022-11-18T11:08:21;38.10;;;27.95;;
57107;SDS011;42987;52.916;6.542;2022-11-18T11:10:57;38.05;;;27.13;;
57107;SDS011;42987;52.916;6.542;2022-11-18T11:13:26;35.45;;;27.90;;
57107;SDS011;42987;52.916;6.542;2022-11-18T11:15:55;37.00;;;27.35;;
57107;SDS011;42987;52.916;6.542;2022-11-18T11:21:14;34.05;;;25.27;;
57107;SDS011;42987;52.916;6.542;2022-11-18T11:23:42;32.35;;;25.67;;
57107;SDS011;42987;52.916;6.542;2022-11-18T11:34:44;32.13;;;24.55;;
57107;SDS011;42987;52.916;6.542;2022-11-18T11:39:49;29.77;;;23.52;;
57107;SDS011;42987;52.916;6.542;2022-11-18T11:42:39;31.95;;;25.40;;
57107;SDS011;42987;52.916;6.542;2022-11-18T11:51:18;26.77;;;21.42;;
57107;SDS011;42987;52.916;6.542;2022-11-18T11:53:56;27.73;;;21.90;;
57107;SDS011;42987;52.916;6.542;2022-11-18T11:56:37;28.73;;;21.63;;
57107;SDS011;42987;52.916;6.542;2022-11-18T11:59:25;27.02;;;20.02;;
57107;SDS011;42987;52.916;6.542;2022-11-18T12:07:47;25.50;;;19.30;;
57107;SDS011;42987;52.916;6.542;2022-11-18T12:10:27;27.02;;;21.20;;
57107;SDS011;42987;52.916;6.542;2022-11-18T12:21:04;28.40;;;21.95;;
57107;SDS011;42987;52.916;6.542;2022-11-18T12:23:30;30.42;;;22.88;;
57107;SDS011;42987;52.916;6.542;2022-11-18T12:26:02;25.85;;;18.75;;
57107;SDS011;42987;52.916;6.542;2022-11-18T12:28:40;24.85;;;19.85;;
57107;SDS011;42987;52.916;6.542;2022-11-18T12:33:43;25.67;;;20.15;;
57107;SDS011;42987;52.916;6.542;2022-11-18T12:36:34;25.88;;;19.75;;
57107;SDS011;42987;52.916;6.542;2022-11-18T12:44:42;26.38;;;20.40;;
57107;SDS011;42987;52.916;6.542;2022-11-18T12:47:09;30.17;;;21.95;;
57107;SDS011;42987;52.916;6.542;2022-11-18T12:53:43;27.08;;;19.40;;
57107;SDS011;42987;52.916;6.542;2022-11-18T12:58:47;26.65;;;19.85;;
57107;SDS011;42987;52.916;6.542;2022-11-18T13:01:16;25.17;;;18.27;;
57107;SDS011;42987;52.916;6.542;2022-11-18T13:03:44;24.60;;;18.20;;
57107;SDS011;42987;52.916;6.542;2022-11-18T13:06:27;24.35;;;18.33;;
57107;SDS011;42987;52.916;6.542;2022-11-18T13:09:02;23.00;;;17.73;;
57107;SDS011;42987;52.916;6.542;2022-11-18T13:11:33;25.17;;;18.63;;
57107;SDS011;42987;52.916;6.542;2022-11-18T13:17:33;24.30;;;18.30;;
57107;SDS011;42987;52.916;6.542;2022-11-18T13:26:02;28.77;;;20.55;;
57107;SDS011;42987;52.916;6.542;2022-11-18T13:29:18;29.75;;;21.27;;
57107;SDS011;42987;52.916;6.542;2022-11-18T13:34:30;28.02;;;20.42;;
57107;SDS011;42987;52.916;6.542;2022-11-18T13:37:11;28.00;;;20.85;;
57107;SDS011;42987;52.916;6.542;2022-11-18T13:39:42;28.92;;;20.92;;
57107;SDS011;42987;52.916;6.542;2022-11-18T13:42:28;30.00;;;21.33;;
57107;SDS011;42987;52.916;6.542;2022-11-18T13:55:01;32.97;;;22.90;;
57107;SDS011;42987;52.916;6.542;2022-11-18T13:57:32;35.25;;;23.92;;
57107;SDS011;42987;52.916;6.542;2022-11-18T14:00:01;39.97;;;25.88;;
57107;SDS011;42987;52.916;6.542;2022-11-18T14:02:31;37.03;;;25.73;;
57107;SDS011;42987;52.916;6.542;2022-11-18T14:05:02;37.38;;;24.65;;
57107;SDS011;42987;52.916;6.542;2022-11-18T14:07:30;37.42;;;26.35;;
57107;SDS011;42987;52.916;6.542;2022-11-18T14:09:58;34.58;;;25.05;;
57107;SDS011;42987;52.916;6.542;2022-11-18T14:12:30;32.47;;;23.88;;
57107;SDS011;42987;52.916;6.542;2022-11-18T14:17:50;29.23;;;22.45;;
57107;SDS011;42987;52.916;6.542;2022-11-18T14:20:19;28.73;;;21.50;;
57107;SDS011;42987;52.916;6.542;2022-11-18T14:22:45;28.85;;;20.73;;
57107;SDS011;42987;52.916;6.542;2022-11-18T14:25:18;26.80;;;20.35;;
57107;SDS011;42987;52.916;6.542;2022-11-18T14:28:08;25.35;;;20.10;;
57107;SDS011;42987;52.916;6.542;2022-11-18T14:31:28;26.85;;;20.70;;
57107;SDS011;42987;52.916;6.542;2022-11-18T14:33:30;26.20;;;20.98;;
57107;SDS011;42987;52.916;6.542;2022-11-18T14:36:07;29.23;;;22.10;;
57107;SDS011;42987;52.916;6.542;2022-11-18T14:38:42;30.55;;;24.15;;
57107;SDS011;42987;52.916;6.542;2022-11-18T14:41:13;29.02;;;21.98;;
57107;SDS011;42987;52.916;6.542;2022-11-18T14:43:41;27.40;;;22.73;;
57107;SDS011;42987;52.916;6.542;2022-11-18T14:46:11;29.23;;;22.23;;
57107;SDS011;42987;52.916;6.542;2022-11-18T14:48:40;23.35;;;18.58;;
57107;SDS011;42987;52.916;6.542;2022-11-18T14:51:10;22.70;;;18.00;;
57107;SDS011;42987;52.916;6.542;2022-11-18T14:53:40;19.40;;;16.17;;
57107;SDS011;42987;52.916;6.542;2022-11-18T14:56:10;21.48;;;17.25;;
57107;SDS011;42987;52.916;6.542;2022-11-18T14:58:57;23.80;;;17.65;;
57107;SDS011;42987;52.916;6.542;2022-11-18T15:01:26;27.15;;;20.30;;
57107;SDS011;42987;52.916;6.542;2022-11-18T15:03:56;26.60;;;20.85;;
57107;SDS011;42987;52.916;6.542;2022-11-18T15:06:22;28.98;;;22.30;;
57107;SDS011;42987;52.916;6.542;2022-11-18T15:08:50;31.10;;;22.60;;
57107;SDS011;42987;52.916;6.542;2022-11-18T15:11:17;26.58;;;21.33;;
57107;SDS011;42987;52.916;6.542;2022-11-18T15:13:43;26.90;;;21.58;;
57107;SDS011;42987;52.916;6.542;2022-11-18T15:16:13;27.52;;;21.88;;
57107;SDS011;42987;52.916;6.542;2022-11-18T15:18:42;28.30;;;21.63;;
57107;SDS011;42987;52.916;6.542;2022-11-18T15:21:09;27.60;;;21.33;;
57107;SDS011;42987;52.916;6.542;2022-11-18T15:23:35;27.42;;;21.10;;
57107;SDS011;42987;52.916;6.542;2022-11-18T15:26:02;25.75;;;19.92;;
57107;SDS011;42987;52.916;6.542;2022-11-18T15:28:36;22.60;;;18.60;;
57107;SDS011;42987;52.916;6.542;2022-11-18T15:31:01;26.27;;;20.25;;
57107;SDS011;42987;52.916;6.542;2022-11-18T15:33:27;23.10;;;19.02;;
57107;SDS011;42987;52.916;6.542;2022-11-18T15:35:53;23.48;;;18.90;;
57107;SDS011;42987;52.916;6.542;2022-11-18T15:38:19;25.20;;;19.38;;
57107;SDS011;42987;52.916;6.542;2022-11-18T15:40:44;24.80;;;19.27;;
57107;SDS011;42987;52.916;6.542;2022-11-18T15:43:10;23.88;;;19.25;;
57107;SDS011;42987;52.916;6.542;2022-11-18T15:45:36;22.60;;;18.25;;
57107;SDS011;42987;52.916;6.542;2022-11-18T15:48:02;23.65;;;19.60;;
57107;SDS011;42987;52.916;6.542;2022-11-18T15:50:28;21.35;;;17.83;;
57107;SDS011;42987;52.916;6.542;2022-11-18T15:52:54;21.33;;;17.88;;
57107;SDS011;42987;52.916;6.542;2022-11-18T15:55:21;20.52;;;17.33;;
57107;SDS011;42987;52.916;6.542;2022-11-18T15:57:47;22.10;;;17.92;;
57107;SDS011;42987;52.916;6.542;2022-11-18T16:00:13;19.90;;;17.75;;
57107;SDS011;42987;52.916;6.542;2022-11-18T16:02:39;21.87;;;18.70;;
57107;SDS011;42987;52.916;6.542;2022-11-18T16:05:05;23.37;;;20.00;;
57107;SDS011;42987;52.916;6.542;2022-11-18T16:07:31;21.80;;;18.93;;
57107;SDS011;42987;52.916;6.542;2022-11-18T16:09:57;22.70;;;20.17;;
57107;SDS011;42987;52.916;6.542;2022-11-18T16:12:41;24.00;;;21.10;;
57107;SDS011;42987;52.916;6.542;2022-11-18T16:15:16;25.92;;;21.38;;
57107;SDS011;42987;52.916;6.542;2022-11-18T16:18:01;25.65;;;21.67;;
57107;SDS011;42987;52.916;6.542;2022-11-18T16:20:27;26.60;;;20.88;;
57107;SDS011;42987;52.916;6.542;2022-11-18T16:22:56;27.23;;;22.30;;
57107;SDS011;42987;52.916;6.542;2022-11-18T16:25:22;25.23;;;21.23;;
57107;SDS011;42987;52.916;6.542;2022-11-18T16:27:52;25.80;;;21.25;;
57107;SDS011;42987;52.916;6.542;2022-11-18T16:30:18;24.58;;;19.95;;
57107;SDS011;42987;52.916;6.542;2022-11-18T16:33:03;24.27;;;20.40;;
57107;SDS011;42987;52.916;6.542;2022-11-18T16:35:29;24.13;;;19.38;;
57107;SDS011;42987;52.916;6.542;2022-11-18T16:37:55;23.67;;;19.87;;
57107;SDS011;42987;52.916;6.542;2022-11-18T16:40:20;23.93;;;20.80;;
57107;SDS011;42987;52.916;6.542;2022-11-18T16:42:50;23.40;;;20.10;;
57107;SDS011;42987;52.916;6.542;2022-11-18T16:45:17;24.98;;;20.75;;
57107;SDS011;42987;52.916;6.542;2022-11-18T16:47:43;25.70;;;22.40;;
57107;SDS011;42987;52.916;6.542;2022-11-18T16:50:09;26.83;;;21.27;;
57107;SDS011;42987;52.916;6.542;2022-11-18T16:52:36;27.05;;;22.25;;
57107;SDS011;42987;52.916;6.542;2022-11-18T16:55:02;29.40;;;23.93;;
57107;SDS011;42987;52.916;6.542;2022-11-18T16:57:28;29.33;;;24.53;;
57107;SDS011;42987;52.916;6.542;2022-11-18T16:59:55;27.87;;;23.00;;
57107;SDS011;42987;52.916;6.542;2022-11-18T17:02:21;27.33;;;24.08;;